createdAt,value
2018-02-08T00:02:00.123Z,32.87
2018-02-08T00:04:27.604Z,31.87
2018-02-08T00:06:55.068Z,33.10
2018-02-08T00:09:22.770Z,33.87
2018-02-08T00:11:50.547Z,33.93
2018-02-08T00:14:18.327Z,33.27
2018-02-08T00:16:46.075Z,32.10
2018-02-08T00:19:13.578Z,32.77
2018-02-08T00:21:41.043Z,33.90
2018-02-08T00:24:08.754Z,33.73
2018-02-08T00:26:36.319Z,32.97
2018-02-08T00:29:04.592Z,32.93
2018-02-08T00:31:32.047Z,32.90
2018-02-08T00:33:59.573Z,34.70
2018-02-08T00:36:27.289Z,34.17
2018-02-08T00:38:54.899Z,34.57
2018-02-08T00:41:22.380Z,33.00
2018-02-08T00:43:49.949Z,34.50
2018-02-08T00:46:17.808Z,34.23
2018-02-08T00:48:45.464Z,35.00
2018-02-08T00:51:12.953Z,34.03
2018-02-08T00:53:40.604Z,34.90
2018-02-08T00:56:08.106Z,34.33
2018-02-08T00:58:35.579Z,33.73
2018-02-08T01:01:03.104Z,33.10
2018-02-08T01:03:30.743Z,33.37
2018-02-08T01:05:58.211Z,33.90
2018-02-08T01:08:25.696Z,34.23
2018-02-08T01:10:53.147Z,33.43
2018-02-08T01:13:20.622Z,33.77
2018-02-08T01:15:48.276Z,33.77
2018-02-08T01:18:15.744Z,33.40
2018-02-08T01:20:43.325Z,32.83
2018-02-08T01:23:11.085Z,32.70
2018-02-08T01:25:38.544Z,32.93
2018-02-08T01:28:06.008Z,34.00
2018-02-08T01:30:33.692Z,33.83
2018-02-08T01:33:01.211Z,34.03
2018-02-08T01:35:28.686Z,33.40
2018-02-08T01:37:56.159Z,34.23
2018-02-08T01:40:23.632Z,34.27
2018-02-08T01:42:51.271Z,33.60
2018-02-08T01:45:18.808Z,33.70
2018-02-08T01:47:46.402Z,33.03
2018-02-08T01:50:13.928Z,33.10
2018-02-08T01:52:41.403Z,31.50
2018-02-08T01:55:08.876Z,35.67
2018-02-08T01:57:36.390Z,33.93
2018-02-08T02:00:04.159Z,34.70
2018-02-08T02:02:31.670Z,32.47
2018-02-08T02:04:59.299Z,33.00
2018-02-08T02:07:26.835Z,33.97
2018-02-08T02:09:54.320Z,33.37
2018-02-08T02:12:22.055Z,32.50
2018-02-08T02:14:49.529Z,33.93
2018-02-08T02:17:16.990Z,34.17
2018-02-08T02:19:45.357Z,33.63
2018-02-08T02:22:12.962Z,34.07
2018-02-08T02:24:40.574Z,36.27
2018-02-08T02:27:08.037Z,35.00
2018-02-08T02:29:35.723Z,34.10
2018-02-08T02:32:03.201Z,34.27
2018-02-08T02:34:30.664Z,33.33
2018-02-08T02:36:58.150Z,32.90
2018-02-08T02:39:25.623Z,32.97
2018-02-08T02:41:53.409Z,32.37
2018-02-08T02:44:20.995Z,33.00
2018-02-08T02:46:48.519Z,33.73
2018-02-08T02:49:15.984Z,34.20
2018-02-08T02:51:43.510Z,34.53
2018-02-08T02:54:11.106Z,32.97
2018-02-08T02:56:38.587Z,32.80
2018-02-08T02:59:06.051Z,33.23
2018-02-08T03:01:33.531Z,33.67
2018-02-08T03:04:00.987Z,33.30
2018-02-08T03:06:28.568Z,33.20
2018-02-08T03:08:56.636Z,33.20
2018-02-08T03:11:24.174Z,33.13
2018-02-08T03:13:51.855Z,34.90
2018-02-08T03:16:19.427Z,34.23
2018-02-08T03:18:47.691Z,33.10
2018-02-08T03:21:15.163Z,34.10
2018-02-08T03:23:42.899Z,32.77
2018-02-08T03:26:10.667Z,33.77
2018-02-08T03:28:38.457Z,33.27
2018-02-08T03:31:20.811Z,33.43
2018-02-08T03:33:48.403Z,33.57
2018-02-08T03:36:16.179Z,32.37
2018-02-08T03:38:43.842Z,32.70
2018-02-08T03:41:11.324Z,32.57
2018-02-08T03:43:38.792Z,33.47
2018-02-08T03:46:06.258Z,33.57
2018-02-08T03:48:33.759Z,33.03
2018-02-08T03:51:01.515Z,34.37
2018-02-08T03:53:29.285Z,34.57
2018-02-08T03:55:56.745Z,33.63
2018-02-08T03:58:24.215Z,31.77
2018-02-08T04:00:51.966Z,32.63
2018-02-08T04:03:20.342Z,34.13
2018-02-08T04:05:47.995Z,33.97
2018-02-08T04:08:15.560Z,35.10
2018-02-08T04:10:43.200Z,33.87
2018-02-08T04:13:10.695Z,34.93
2018-02-08T04:15:38.158Z,32.80
2018-02-08T04:18:05.668Z,34.27
2018-02-08T04:20:33.132Z,31.93
2018-02-08T04:23:00.611Z,33.37
2018-02-08T04:25:28.085Z,33.77
2018-02-08T04:27:55.831Z,32.67
2018-02-08T04:30:23.487Z,33.53
2018-02-08T04:32:51.739Z,36.33
2018-02-08T04:35:19.358Z,36.87
2018-02-08T04:37:46.887Z,35.13
2018-02-08T04:40:26.241Z,35.57
2018-02-08T04:43:05.767Z,35.33
2018-02-08T04:45:45.131Z,35.67
2018-02-08T04:48:12.662Z,33.97
2018-02-08T04:50:40.183Z,35.23
2018-02-08T04:53:07.643Z,34.63
2018-02-08T04:55:35.132Z,34.93
2018-02-08T04:58:02.790Z,35.67
2018-02-08T05:00:30.279Z,35.13
2018-02-08T05:02:57.917Z,34.20
2018-02-08T05:05:25.463Z,37.20
2018-02-08T05:07:52.935Z,37.03
2018-02-08T05:10:20.496Z,35.13
2018-02-08T05:12:48.734Z,35.27
2018-02-08T05:15:16.229Z,35.70
2018-02-08T05:17:43.850Z,35.40
2018-02-08T05:20:11.343Z,38.17
2018-02-08T05:22:38.805Z,35.40
2018-02-08T05:25:06.351Z,36.20
2018-02-08T05:27:33.826Z,36.10
2018-02-08T05:30:01.316Z,36.73
2018-02-08T05:32:29.012Z,38.20
2018-02-08T05:34:56.787Z,37.73
2018-02-08T05:37:24.254Z,37.20
2018-02-08T05:39:52.003Z,37.37
2018-02-08T05:42:19.767Z,37.73
2018-02-08T05:44:47.538Z,37.33
2018-02-08T05:47:15.198Z,35.47
2018-02-08T05:49:42.679Z,35.03
2018-02-08T05:52:10.208Z,36.07
2018-02-08T05:54:37.677Z,35.13
2018-02-08T05:57:05.354Z,34.57
2018-02-08T05:59:32.907Z,35.87
2018-02-08T06:02:00.381Z,35.90
2018-02-08T06:04:28.110Z,37.10
2018-02-08T06:06:55.791Z,36.73
2018-02-08T06:09:23.251Z,37.63
2018-02-08T06:11:50.720Z,34.77
2018-02-08T06:14:18.923Z,36.40
2018-02-08T06:16:46.617Z,34.97
2018-02-08T06:19:14.387Z,35.13
2018-02-08T06:21:41.954Z,36.60
2018-02-08T06:24:09.606Z,36.57
2018-02-08T06:26:37.291Z,37.93
2018-02-08T06:29:04.746Z,37.87
2018-02-08T06:31:32.226Z,37.50
2018-02-08T06:33:59.752Z,35.03
2018-02-08T06:36:27.223Z,37.20
2018-02-08T06:38:54.698Z,36.07
2018-02-08T06:41:22.302Z,37.50
2018-02-08T06:43:49.875Z,35.07
2018-02-08T06:46:17.511Z,38.03
2018-02-08T06:48:44.987Z,36.60
2018-02-08T06:51:12.499Z,37.87
2018-02-08T06:53:39.959Z,37.70
2018-02-08T06:56:07.451Z,37.53
2018-02-08T06:58:34.927Z,38.67
2018-02-08T07:01:02.705Z,39.43
2018-02-08T07:03:30.375Z,38.40
2018-02-08T07:05:57.841Z,39.17
2018-02-08T07:08:25.303Z,40.30
2018-02-08T07:10:52.786Z,39.60
2018-02-08T07:13:20.252Z,40.97
2018-02-08T07:15:47.717Z,40.37
2018-02-08T07:18:15.191Z,36.90
2018-02-08T07:20:42.943Z,37.63
2018-02-08T07:23:10.419Z,37.43
2018-02-08T07:25:38.030Z,38.67
2018-02-08T07:28:05.717Z,38.80
2018-02-08T07:30:33.247Z,36.30
2018-02-08T07:33:00.717Z,37.00
2018-02-08T07:35:28.211Z,37.03
2018-02-08T07:37:55.699Z,36.73
2018-02-08T07:40:23.215Z,38.17
2018-02-08T07:42:50.817Z,37.73
2018-02-08T07:45:18.411Z,37.00
2018-02-08T07:47:46.091Z,38.53
2018-02-08T07:50:13.580Z,39.03
2018-02-08T07:52:41.043Z,38.17
2018-02-08T07:55:08.526Z,40.00
2018-02-08T07:57:35.995Z,40.23
2018-02-08T08:00:03.479Z,39.47
2018-02-08T08:02:31.294Z,38.23
2018-02-08T08:04:58.758Z,38.00
2018-02-08T08:07:26.228Z,39.40
2018-02-08T08:09:53.795Z,36.53
2018-02-08T08:12:21.330Z,38.80
2018-02-08T08:14:48.803Z,37.07
2018-02-08T08:17:16.263Z,38.00
2018-02-08T08:19:43.850Z,37.67
2018-02-08T08:22:11.330Z,37.90
2018-02-08T08:24:39.808Z,38.40
2018-02-08T08:27:07.271Z,38.83
2018-02-08T08:29:34.730Z,38.53
2018-02-08T08:32:02.203Z,37.97
2018-02-08T08:34:29.679Z,38.83
2018-02-08T08:36:57.181Z,38.93
2018-02-08T08:39:24.657Z,39.67
2018-02-08T08:41:52.314Z,38.17
2018-02-08T08:44:19.807Z,38.83
2018-02-08T08:46:47.284Z,37.90
2018-02-08T08:49:14.747Z,39.97
2018-02-08T08:51:42.406Z,39.67
2018-02-08T08:54:09.955Z,39.37
2018-02-08T08:56:37.649Z,40.43
2018-02-08T08:59:05.113Z,39.80
2018-02-08T09:01:32.618Z,39.60
2018-02-08T09:04:00.107Z,40.17
2018-02-08T09:06:27.567Z,40.07
2018-02-08T09:08:55.199Z,38.63
2018-02-08T09:11:22.671Z,40.07
2018-02-08T09:13:50.238Z,40.07
2018-02-08T09:16:17.787Z,40.20
2018-02-08T09:18:45.351Z,40.93
2018-02-08T09:21:12.927Z,39.90
2018-02-08T09:23:40.399Z,39.43
2018-02-08T09:26:08.194Z,41.27
2018-02-08T09:28:35.819Z,38.07
2018-02-08T09:31:03.285Z,40.73
2018-02-08T09:33:30.787Z,39.30
2018-02-08T09:35:58.260Z,39.23
2018-02-08T09:38:25.923Z,37.87
2018-02-08T09:40:53.440Z,38.63
2018-02-08T09:43:20.943Z,40.73
2018-02-08T09:45:48.591Z,41.07
2018-02-08T09:48:16.195Z,40.10
2018-02-08T09:50:43.715Z,39.77
2018-02-08T09:53:11.180Z,40.50
2018-02-08T09:55:38.644Z,39.67
2018-02-08T09:58:06.323Z,40.67
2018-02-08T10:00:34.067Z,39.00
2018-02-08T10:03:01.531Z,40.57
2018-02-08T10:05:29.291Z,40.30
2018-02-08T10:07:56.746Z,40.67
2018-02-08T10:10:24.319Z,39.40
2018-02-08T10:12:51.847Z,39.53
2018-02-08T10:15:19.323Z,40.53
2018-02-08T10:17:46.779Z,40.60
2018-02-08T10:20:14.339Z,42.30
2018-02-08T10:22:42.103Z,41.07
2018-02-08T10:25:09.571Z,40.67
2018-02-08T10:27:37.087Z,40.47
2018-02-08T10:30:04.771Z,40.73
2018-02-08T10:32:32.435Z,40.73
2018-02-08T10:34:59.999Z,40.83
2018-02-08T10:37:27.489Z,40.67
2018-02-08T10:39:55.139Z,40.73
2018-02-08T10:42:22.679Z,41.37
2018-02-08T10:44:50.134Z,41.53
2018-02-08T10:47:17.908Z,41.03
2018-02-08T10:49:45.544Z,41.43
2018-02-08T10:52:13.037Z,40.93
2018-02-08T10:54:40.500Z,39.83
2018-02-08T10:57:08.046Z,40.03
2018-02-08T10:59:35.657Z,39.83
2018-02-08T11:02:03.171Z,40.53
2018-02-08T11:04:30.715Z,39.90
2018-02-08T11:06:58.179Z,38.37
2018-02-08T11:09:25.835Z,39.23
2018-02-08T11:11:53.327Z,39.73
2018-02-08T11:14:20.840Z,39.13
2018-02-08T11:16:48.303Z,39.33
2018-02-08T11:19:16.059Z,43.70
2018-02-08T11:21:43.535Z,43.30
2018-02-08T11:24:10.995Z,43.23
2018-02-08T11:26:38.736Z,39.87
2018-02-08T11:29:06.196Z,40.83
2018-02-08T11:31:33.651Z,40.27
2018-02-08T11:34:01.427Z,40.57
2018-02-08T11:36:28.883Z,41.43
2018-02-08T11:38:57.033Z,41.50
2018-02-08T11:41:24.490Z,42.77
2018-02-08T11:43:52.095Z,43.00
2018-02-08T11:46:19.930Z,43.70
2018-02-08T11:48:47.403Z,41.00
2018-02-08T11:51:14.854Z,42.37
2018-02-08T11:53:42.571Z,42.40
2018-02-08T11:56:10.047Z,42.17
2018-02-08T11:58:37.834Z,43.17
2018-02-08T12:01:05.607Z,43.60
2018-02-08T12:03:33.075Z,41.90
2018-02-08T12:06:00.611Z,41.10
2018-02-08T12:08:28.287Z,43.13
2018-02-08T12:10:56.035Z,41.53
2018-02-08T12:13:23.786Z,42.17
2018-02-08T12:15:51.551Z,41.47
2018-02-08T12:18:19.238Z,41.30
2018-02-08T12:20:46.698Z,42.60
2018-02-08T12:23:14.235Z,42.23
2018-02-08T12:25:41.695Z,43.07
2018-02-08T12:28:09.146Z,40.50
2018-02-08T12:30:36.627Z,42.23
2018-02-08T12:33:04.103Z,41.93
2018-02-08T12:35:31.575Z,40.47
2018-02-08T12:37:59.155Z,42.60
2018-02-08T12:40:26.631Z,40.20
2018-02-08T12:42:54.095Z,41.07
2018-02-08T12:45:21.575Z,40.20
2018-02-08T12:47:49.032Z,41.83
2018-02-08T12:50:16.536Z,42.07
2018-02-08T12:52:44.011Z,40.77
2018-02-08T12:55:11.683Z,41.93
2018-02-08T12:57:39.193Z,40.53
2018-02-08T13:00:06.690Z,38.53
2018-02-08T13:02:34.335Z,38.40
2018-02-08T13:05:01.969Z,39.10
2018-02-08T13:07:29.591Z,41.07
2018-02-08T13:09:57.059Z,40.57
2018-02-08T13:12:24.526Z,37.57
2018-02-08T13:14:51.984Z,36.13
2018-02-08T13:17:19.448Z,35.57
2018-02-08T13:19:46.904Z,35.80
2018-02-08T13:22:14.375Z,35.57
2018-02-08T13:24:41.827Z,38.07
2018-02-08T13:27:09.301Z,39.13
2018-02-08T13:29:36.970Z,37.13
2018-02-08T13:32:05.061Z,37.50
2018-02-08T13:34:32.523Z,36.70
2018-02-08T13:36:59.994Z,37.10
2018-02-08T13:39:33.240Z,37.07
2018-02-08T13:42:06.411Z,39.33
2018-02-08T13:44:33.875Z,37.50
2018-02-08T13:47:01.352Z,38.70
2018-02-08T13:49:28.822Z,39.83
2018-02-08T13:52:01.831Z,38.93
2018-02-08T13:54:31.951Z,36.50
2018-02-08T14:00:20.087Z,38.90
2018-02-08T14:02:47.675Z,39.67
2018-02-08T14:05:15.131Z,37.97
2018-02-08T14:07:42.607Z,38.83
2018-02-08T14:10:10.068Z,39.30
2018-02-08T14:12:37.542Z,37.37
2018-02-08T14:15:05.043Z,36.10
2018-02-08T14:17:32.814Z,36.77
2018-02-08T14:20:00.263Z,38.07
2018-02-08T14:22:27.739Z,39.53
2018-02-08T14:24:55.483Z,38.37
2018-02-08T14:27:22.987Z,38.87
2018-02-08T14:29:50.479Z,39.07
2018-02-08T14:32:18.075Z,37.93
2018-02-08T14:34:45.588Z,37.97
2018-02-08T14:37:13.091Z,39.60
2018-02-08T14:39:40.739Z,37.00
2018-02-08T14:42:08.292Z,34.93
2018-02-08T14:44:35.759Z,35.33
2018-02-08T14:47:03.531Z,35.17
2018-02-08T14:49:31.015Z,37.43
2018-02-08T14:51:58.601Z,37.10
2018-02-08T14:54:26.064Z,35.73
2018-02-08T14:56:53.558Z,39.10
2018-02-08T14:59:21.031Z,37.87
2018-02-08T15:01:48.487Z,37.80
2018-02-08T15:04:15.967Z,36.70
2018-02-08T15:06:43.423Z,38.20
2018-02-08T15:09:10.892Z,39.83
2018-02-08T15:11:38.393Z,38.40
2018-02-08T15:14:05.903Z,37.20
2018-02-08T15:16:33.367Z,38.67
2018-02-08T15:19:00.981Z,38.23
2018-02-08T15:21:28.451Z,38.60
2018-02-08T15:23:55.959Z,38.10
2018-02-08T15:26:23.444Z,36.33
2018-02-08T15:28:51.109Z,39.07
2018-02-08T15:31:18.639Z,39.83
2018-02-08T15:33:46.443Z,38.67
2018-02-08T15:36:13.937Z,38.97
2018-02-08T15:38:41.393Z,40.37
2018-02-08T15:41:08.967Z,41.67
2018-02-08T15:43:36.544Z,41.43
2018-02-08T15:46:04.074Z,41.03
2018-02-08T15:48:31.498Z,40.80
2018-02-08T15:50:59.135Z,40.90
2018-02-08T15:53:26.599Z,41.77
2018-02-08T15:55:54.079Z,42.70
2018-02-08T15:58:21.587Z,41.87
2018-02-08T16:00:49.230Z,41.30
2018-02-08T16:03:17.882Z,40.97
2018-02-08T16:05:45.423Z,42.50
2018-02-08T16:08:12.994Z,41.43
2018-02-08T16:10:40.730Z,40.57
2018-02-08T16:13:08.251Z,39.63
2018-02-08T16:15:35.793Z,40.80
2018-02-08T16:18:04.264Z,42.87
2018-02-08T16:20:31.844Z,41.07
2018-02-08T16:22:59.457Z,41.30
2018-02-08T16:25:27.995Z,41.53
2018-02-08T16:27:55.517Z,41.83
2018-02-08T16:30:23.845Z,43.60
2018-02-08T16:32:51.453Z,42.03
2018-02-08T16:35:20.744Z,42.93
2018-02-08T16:37:48.299Z,41.10
2018-02-08T16:40:15.809Z,41.50
2018-02-08T16:42:43.312Z,42.33
2018-02-08T16:45:11.599Z,41.93
2018-02-08T16:47:39.165Z,41.87
2018-02-08T16:50:06.700Z,41.90
2018-02-08T16:52:34.217Z,40.70
2018-02-08T16:55:01.771Z,43.10
2018-02-08T16:57:29.383Z,43.17
2018-02-08T16:59:56.953Z,40.73
2018-02-08T17:02:24.462Z,43.17
2018-02-08T17:04:52.661Z,43.20
2018-02-08T17:07:20.248Z,45.87
2018-02-08T17:09:47.736Z,43.40
2018-02-08T17:12:15.228Z,41.93
2018-02-08T17:14:42.766Z,43.03
2018-02-08T17:17:10.312Z,44.03
2018-02-08T17:19:38.073Z,43.27
2018-02-08T17:22:05.605Z,44.70
2018-02-08T17:24:33.113Z,43.97
2018-02-08T17:27:00.710Z,43.00
2018-02-08T17:29:28.228Z,42.77
2018-02-08T17:31:55.782Z,44.03
2018-02-08T17:34:23.294Z,42.87
2018-02-08T17:36:51.606Z,44.77
2018-02-08T17:39:19.192Z,136.47
2018-02-08T17:41:46.716Z,76.13
2018-02-08T17:44:14.278Z,52.97
2018-02-08T17:46:42.726Z,49.20
2018-02-08T17:49:11.045Z,67.43
2018-02-08T17:51:38.578Z,58.63
2018-02-08T17:54:06.109Z,52.60
2018-02-08T17:56:33.621Z,49.43
2018-02-08T17:59:01.165Z,47.87
2018-02-08T18:01:28.682Z,45.83
2018-02-08T18:03:56.204Z,44.90
2018-02-08T18:06:23.701Z,44.27
2018-02-08T18:08:51.289Z,43.60
2018-02-08T18:11:19.160Z,44.70
2018-02-08T18:13:47.520Z,44.10
2018-02-08T18:16:15.845Z,44.73
2018-02-08T18:18:43.366Z,46.90
2018-02-08T18:21:10.877Z,46.37
2018-02-08T18:23:38.456Z,43.67
2018-02-08T18:26:06.958Z,42.90
2018-02-08T18:28:35.253Z,44.90
2018-02-08T18:31:03.528Z,44.07
2018-02-08T18:33:31.667Z,44.50
2018-02-08T18:35:59.644Z,45.23
2018-02-08T18:38:27.544Z,44.40
2018-02-08T18:40:55.080Z,45.90
2018-02-08T18:43:22.641Z,46.10
2018-02-08T18:45:50.168Z,50.70
2018-02-08T18:48:17.720Z,57.27
2018-02-08T18:50:45.232Z,49.77
2018-02-08T18:53:12.756Z,49.93
2018-02-08T18:55:41.045Z,46.10
2018-02-08T18:58:08.629Z,48.03
2018-02-08T19:00:36.146Z,47.40
2018-02-08T19:03:04.172Z,46.93
2018-02-08T19:05:31.712Z,45.67
2018-02-08T19:08:00.215Z,46.97
2018-02-08T19:10:27.717Z,47.03
2018-02-08T19:12:55.274Z,46.03
2018-02-08T19:15:22.855Z,45.20
2018-02-08T19:17:50.357Z,45.63
2018-02-08T19:20:18.604Z,45.20
2018-02-08T19:22:46.120Z,46.53
2018-02-08T19:25:13.671Z,47.00
2018-02-08T19:27:41.245Z,49.13
2018-02-08T19:30:08.827Z,48.97
2018-02-08T19:32:36.372Z,48.27
2018-02-08T19:35:03.843Z,49.20
2018-02-08T19:37:32.227Z,47.13
2018-02-08T19:39:59.710Z,46.47
2018-02-08T19:42:27.212Z,45.87
2018-02-08T19:44:54.743Z,47.37
2018-02-08T19:47:22.245Z,45.80
2018-02-08T19:49:49.811Z,46.53
2018-02-08T19:52:17.360Z,45.17
2018-02-08T19:54:44.868Z,46.70
2018-02-08T19:57:12.389Z,48.00
2018-02-08T19:59:39.930Z,46.47
2018-02-08T20:02:07.493Z,45.73
2018-02-08T20:04:35.021Z,47.07
2018-02-08T20:07:02.546Z,45.47
2018-02-08T20:09:30.124Z,47.47
2018-02-08T20:11:57.661Z,44.67
2018-02-08T20:14:38.568Z,45.50
2018-02-08T20:17:06.233Z,44.90
2018-02-08T20:19:33.785Z,48.00
2018-02-08T20:22:01.386Z,48.40
2018-02-08T20:24:28.913Z,48.27
2018-02-08T20:26:56.448Z,48.07
2018-02-08T20:29:23.977Z,46.30
2018-02-08T20:31:51.579Z,47.10
2018-02-08T20:34:19.548Z,47.13
2018-02-08T20:36:47.048Z,46.67
2018-02-08T20:39:15.322Z,47.87
2018-02-08T20:41:42.855Z,47.30
2018-02-08T20:44:11.162Z,47.03
2018-02-08T20:46:38.687Z,45.87
2018-02-08T20:49:06.292Z,48.33
2018-02-08T20:51:33.834Z,47.17
2018-02-08T20:54:01.375Z,47.03
2018-02-08T20:56:29.657Z,46.50
2018-02-08T20:58:57.225Z,47.60
2018-02-08T21:01:25.524Z,46.97
2018-02-08T21:03:53.276Z,49.83
2018-02-08T21:06:20.837Z,53.70
2018-02-08T21:08:48.411Z,50.00
2018-02-08T21:11:15.913Z,48.03
2018-02-08T21:13:43.457Z,48.13
2018-02-08T21:16:10.955Z,46.73
2018-02-08T21:18:39.261Z,47.70
2018-02-08T21:21:07.543Z,47.43
2018-02-08T21:23:35.922Z,47.23
2018-02-08T21:26:03.459Z,47.70
2018-02-08T21:28:30.945Z,47.10
2018-02-08T21:30:58.634Z,46.80
2018-02-08T21:33:26.122Z,45.70
2018-02-08T21:35:53.665Z,46.80
2018-02-08T21:38:21.158Z,48.00
2018-02-08T21:40:50.334Z,47.00
2018-02-08T21:43:18.081Z,47.00
2018-02-08T21:45:45.670Z,48.77
2018-02-08T21:48:14.377Z,48.07
2018-02-08T21:50:41.988Z,47.10
2018-02-08T21:53:09.584Z,45.43
2018-02-08T21:55:38.139Z,44.73
2018-02-08T21:58:05.698Z,46.03
2018-02-08T22:00:33.903Z,45.13
2018-02-08T22:03:01.437Z,47.60
2018-02-08T22:05:28.960Z,49.57
2018-02-08T22:07:56.546Z,52.13
2018-02-08T22:10:24.287Z,51.30
2018-02-08T22:12:51.847Z,46.93
2018-02-08T22:15:19.511Z,46.43
2018-02-08T22:17:47.059Z,47.57
2018-02-08T22:20:14.523Z,47.13
2018-02-08T22:22:42.307Z,48.60
2018-02-08T22:25:10.079Z,47.03
2018-02-08T22:27:37.827Z,47.20
2018-02-08T22:30:05.313Z,45.40
2018-02-08T22:32:32.802Z,48.00
2018-02-08T22:35:00.526Z,45.97
2018-02-08T22:37:27.999Z,45.20
2018-02-08T22:39:55.726Z,45.60
2018-02-08T22:42:23.269Z,45.37
2018-02-08T22:44:50.946Z,45.07
2018-02-08T22:47:18.423Z,45.80
2018-02-08T22:49:45.923Z,46.90
2018-02-08T22:52:13.391Z,46.50
2018-02-08T22:54:40.880Z,44.00
2018-02-08T22:57:08.455Z,46.17
2018-02-08T22:59:36.001Z,44.90
2018-02-08T23:02:03.647Z,44.30
2018-02-08T23:04:31.148Z,45.23
2018-02-08T23:06:59.267Z,46.30
2018-02-08T23:09:26.762Z,44.40
2018-02-08T23:11:54.508Z,45.20
2018-02-08T23:14:21.991Z,44.77
2018-02-08T23:16:49.727Z,45.23
2018-02-08T23:19:17.501Z,46.23
2018-02-08T23:21:44.971Z,45.47
2018-02-08T23:24:12.436Z,43.63
2018-02-08T23:26:40.059Z,46.07
2018-02-08T23:29:07.632Z,44.93
2018-02-08T23:31:35.295Z,43.40
2018-02-08T23:34:02.851Z,42.87
2018-02-08T23:36:30.509Z,43.23
2018-02-08T23:38:57.983Z,42.47
2018-02-08T23:41:25.552Z,41.70
2018-02-08T23:43:53.015Z,42.83
2018-02-08T23:46:20.655Z,43.60
2018-02-08T23:48:48.180Z,44.17
2018-02-08T23:51:15.851Z,46.10
2018-02-08T23:53:43.351Z,45.17
2018-02-08T23:56:10.830Z,41.63
2018-02-08T23:58:38.296Z,43.20
